createdAt,value
2019-01-14T00:00:09.361Z,993.28
2019-01-14T00:01:14.866Z,993.36
2019-01-14T00:02:20.376Z,993.36
2019-01-14T00:03:25.883Z,993.41
2019-01-14T00:04:31.397Z,993.40
2019-01-14T00:05:37.910Z,993.42
2019-01-14T00:06:42.412Z,993.41
2019-01-14T00:07:47.929Z,993.41
2019-01-14T00:08:53.428Z,993.41
2019-01-14T00:09:58.937Z,993.41
2019-01-14T00:11:04.443Z,993.41
2019-01-14T00:12:10.955Z,993.47
2019-01-14T00:13:15.482Z,993.46
2019-01-14T00:14:20.972Z,993.41
2019-01-14T00:15:26.469Z,993.43
2019-01-14T00:16:31.989Z,993.41
2019-01-14T00:17:37.485Z,993.42
2019-01-14T00:18:44.016Z,993.44
2019-01-14T00:19:48.501Z,993.53
2019-01-14T00:20:54.012Z,993.47
2019-01-14T00:21:59.525Z,993.48
2019-01-14T00:23:05.057Z,993.48
2019-01-14T00:24:10.542Z,993.50
2019-01-14T00:25:17.056Z,993.50
2019-01-14T00:26:21.566Z,993.48
2019-01-14T00:27:27.074Z,993.45
2019-01-14T00:28:32.576Z,993.45
2019-01-14T00:29:38.082Z,993.52
2019-01-14T00:30:43.592Z,993.49
2019-01-14T00:31:50.105Z,993.59
2019-01-14T00:32:54.605Z,993.54
2019-01-14T00:34:00.115Z,993.61
2019-01-14T00:35:05.622Z,993.56
2019-01-14T00:36:17.478Z,993.57
2019-01-14T00:37:16.633Z,993.56
2019-01-14T00:38:23.171Z,993.63
2019-01-14T00:39:27.660Z,993.63
2019-01-14T00:40:33.163Z,993.67
2019-01-14T00:41:38.670Z,993.77
2019-01-14T00:42:44.179Z,993.75
2019-01-14T00:43:49.688Z,993.83
2019-01-14T00:44:56.218Z,993.84
2019-01-14T00:46:00.707Z,993.86
2019-01-14T00:47:06.209Z,993.87
2019-01-14T00:48:11.719Z,993.99
2019-01-14T00:49:17.227Z,993.92
2019-01-14T00:50:22.736Z,993.94
2019-01-14T00:51:29.257Z,994.01
2019-01-14T00:52:33.757Z,994.00
2019-01-14T00:53:39.262Z,994.05
2019-01-14T00:54:44.772Z,994.04
2019-01-14T00:55:50.279Z,994.07
2019-01-14T00:56:55.792Z,994.08
2019-01-14T00:58:02.306Z,994.04
2019-01-14T00:59:06.809Z,994.05
2019-01-14T01:00:12.310Z,994.01
2019-01-14T01:01:17.814Z,994.06
2019-01-14T01:02:23.325Z,994.06
2019-01-14T01:03:28.837Z,994.08
2019-01-14T01:04:35.353Z,994.10
2019-01-14T01:05:39.852Z,994.13
2019-01-14T01:06:45.377Z,994.10
2019-01-14T01:07:50.871Z,994.15
2019-01-14T01:08:56.383Z,994.21
2019-01-14T01:10:01.891Z,994.18
2019-01-14T01:11:08.404Z,994.16
2019-01-14T01:12:12.910Z,994.19
2019-01-14T01:13:18.412Z,994.23
2019-01-14T01:14:23.915Z,994.27
2019-01-14T01:15:29.428Z,994.33
2019-01-14T01:16:34.938Z,994.30
2019-01-14T01:17:41.454Z,994.27
2019-01-14T01:18:45.954Z,994.29
2019-01-14T01:19:51.459Z,994.35
2019-01-14T01:20:56.966Z,994.37
2019-01-14T01:22:02.477Z,994.36
2019-01-14T01:23:07.980Z,994.44
2019-01-14T01:24:14.504Z,994.47
2019-01-14T01:25:19.003Z,994.48
2019-01-14T01:26:24.511Z,994.74
2019-01-14T01:27:30.011Z,994.64
2019-01-14T01:28:35.522Z,994.63
2019-01-14T01:29:41.032Z,994.69
2019-01-14T01:30:47.549Z,994.68
2019-01-14T01:31:52.042Z,994.76
2019-01-14T01:32:57.558Z,994.74
2019-01-14T01:34:03.061Z,994.88
2019-01-14T01:35:08.571Z,994.83
2019-01-14T01:36:14.078Z,994.83
2019-01-14T01:37:20.595Z,994.89
2019-01-14T01:38:25.096Z,994.90
2019-01-14T01:39:30.602Z,994.97
2019-01-14T01:40:36.104Z,994.99
2019-01-14T01:41:41.614Z,994.99
2019-01-14T01:42:47.122Z,995.01
2019-01-14T01:43:53.643Z,994.97
2019-01-14T01:44:58.200Z,994.98
2019-01-14T01:46:03.644Z,995.06
2019-01-14T01:47:09.157Z,995.10
2019-01-14T01:48:14.660Z,995.10
2019-01-14T01:49:20.166Z,995.09
2019-01-14T01:50:26.682Z,995.15
2019-01-14T01:51:31.191Z,995.09
2019-01-14T01:52:36.690Z,995.08
2019-01-14T01:53:42.196Z,995.16
2019-01-14T01:54:47.705Z,995.17
2019-01-14T01:55:53.217Z,995.21
2019-01-14T01:56:59.739Z,995.16
2019-01-14T01:58:04.226Z,995.18
2019-01-14T01:59:09.738Z,995.15
2019-01-14T02:00:15.241Z,995.12
2019-01-14T02:01:20.746Z,995.11
2019-01-14T02:02:26.256Z,995.19
2019-01-14T02:03:32.775Z,995.18
2019-01-14T02:04:37.272Z,995.23
2019-01-14T02:05:42.775Z,995.32
2019-01-14T02:06:48.297Z,995.37
2019-01-14T02:07:53.794Z,995.40
2019-01-14T02:08:59.298Z,995.44
2019-01-14T02:10:05.823Z,995.48
2019-01-14T02:11:10.317Z,995.48
2019-01-14T02:12:15.821Z,995.49
2019-01-14T02:13:21.328Z,995.59
2019-01-14T02:14:26.833Z,995.52
2019-01-14T02:15:32.344Z,995.53
2019-01-14T02:16:38.866Z,995.57
2019-01-14T02:17:43.357Z,995.59
2019-01-14T02:18:48.868Z,995.62
2019-01-14T02:19:54.375Z,995.65
2019-01-14T02:20:59.889Z,995.68
2019-01-14T02:22:05.387Z,995.63
2019-01-14T02:23:11.905Z,995.64
2019-01-14T02:24:16.400Z,995.68
2019-01-14T02:25:21.907Z,995.73
2019-01-14T02:26:27.416Z,995.78
2019-01-14T02:27:32.925Z,995.74
2019-01-14T02:28:38.432Z,995.77
2019-01-14T02:29:44.951Z,995.79
2019-01-14T02:30:49.445Z,995.77
2019-01-14T02:31:54.960Z,995.83
2019-01-14T02:33:00.461Z,995.84
2019-01-14T02:34:05.971Z,995.89
2019-01-14T02:35:11.470Z,995.88
2019-01-14T02:36:18.000Z,995.91
2019-01-14T02:37:22.487Z,995.93
2019-01-14T02:38:27.998Z,995.94
2019-01-14T02:39:33.512Z,995.94
2019-01-14T02:40:39.010Z,995.98
2019-01-14T02:41:44.521Z,995.98
2019-01-14T02:42:51.050Z,996.00
2019-01-14T02:43:55.533Z,995.98
2019-01-14T02:45:01.042Z,995.97
2019-01-14T02:46:06.548Z,996.01
2019-01-14T02:47:12.052Z,996.03
2019-01-14T02:48:17.578Z,996.08
2019-01-14T02:49:24.088Z,996.12
2019-01-14T02:50:28.578Z,996.16
2019-01-14T02:51:34.095Z,996.18
2019-01-14T02:52:39.966Z,996.18
2019-01-14T02:53:45.099Z,996.19
2019-01-14T02:54:50.615Z,996.14
2019-01-14T02:55:57.123Z,996.14
2019-01-14T02:57:01.621Z,996.15
2019-01-14T02:58:07.128Z,996.16
2019-01-14T02:59:12.645Z,996.17
2019-01-14T03:00:18.146Z,996.15
2019-01-14T03:01:23.660Z,996.12
2019-01-14T03:02:30.176Z,996.15
2019-01-14T03:03:34.669Z,996.12
2019-01-14T03:04:40.172Z,996.20
2019-01-14T03:05:45.681Z,996.12
2019-01-14T03:06:57.799Z,996.13
2019-01-14T03:07:56.698Z,996.19
2019-01-14T03:09:03.216Z,996.18
2019-01-14T03:10:07.718Z,996.15
2019-01-14T03:11:13.217Z,996.24
2019-01-14T03:12:18.727Z,996.22
2019-01-14T03:13:24.236Z,996.24
2019-01-14T03:14:29.740Z,996.27
2019-01-14T03:15:36.262Z,996.34
2019-01-14T03:16:40.757Z,996.31
2019-01-14T03:17:46.273Z,996.31
2019-01-14T03:18:51.774Z,996.31
2019-01-14T03:19:57.281Z,996.31
2019-01-14T03:21:02.786Z,996.31
2019-01-14T03:22:09.308Z,996.32
2019-01-14T03:23:13.808Z,996.32
2019-01-14T03:24:19.306Z,996.30
2019-01-14T03:25:24.816Z,996.36
2019-01-14T03:26:30.326Z,996.33
2019-01-14T03:27:35.834Z,996.35
2019-01-14T03:28:42.350Z,996.35
2019-01-14T03:29:46.855Z,996.30
2019-01-14T03:30:52.359Z,996.30
2019-01-14T03:31:57.865Z,996.33
2019-01-14T03:33:03.377Z,996.38
2019-01-14T03:34:08.877Z,996.34
2019-01-14T03:35:15.409Z,996.31
2019-01-14T03:36:19.894Z,996.38
2019-01-14T03:37:25.400Z,996.38
2019-01-14T03:38:30.910Z,996.40
2019-01-14T03:39:36.416Z,996.43
2019-01-14T03:40:41.924Z,996.42
2019-01-14T03:41:48.440Z,996.38
2019-01-14T03:42:52.942Z,996.45
2019-01-14T03:43:58.455Z,996.43
2019-01-14T03:45:03.956Z,996.47
2019-01-14T03:46:09.469Z,996.44
2019-01-14T03:47:14.979Z,996.47
2019-01-14T03:48:21.495Z,996.50
2019-01-14T03:49:25.985Z,996.58
2019-01-14T03:50:31.493Z,996.57
2019-01-14T03:51:37.003Z,996.57
2019-01-14T03:52:42.512Z,996.61
2019-01-14T03:53:48.018Z,996.62
2019-01-14T03:54:54.535Z,996.68
2019-01-14T03:55:59.031Z,996.76
2019-01-14T03:57:04.541Z,996.72
2019-01-14T03:58:10.056Z,996.73
2019-01-14T03:59:15.559Z,996.77
2019-01-14T04:00:21.063Z,996.77
2019-01-14T04:01:27.576Z,996.76
2019-01-14T04:02:32.091Z,996.76
2019-01-14T04:03:37.593Z,996.80
2019-01-14T04:04:43.094Z,996.79
2019-01-14T04:05:48.628Z,996.79
2019-01-14T04:06:54.123Z,996.79
2019-01-14T04:08:00.633Z,996.81
2019-01-14T04:09:05.125Z,996.82
2019-01-14T04:10:10.634Z,996.85
2019-01-14T04:11:16.150Z,996.90
2019-01-14T04:12:21.647Z,996.91
2019-01-14T04:13:27.158Z,996.92
2019-01-14T04:14:33.677Z,996.86
2019-01-14T04:15:38.174Z,996.87
2019-01-14T04:16:43.681Z,996.87
2019-01-14T04:17:49.187Z,996.80
2019-01-14T04:18:54.707Z,996.83
2019-01-14T04:20:00.202Z,996.82
2019-01-14T04:21:06.727Z,996.85
2019-01-14T04:22:11.222Z,996.87
2019-01-14T04:23:16.730Z,996.89
2019-01-14T04:24:22.242Z,996.90
2019-01-14T04:25:27.756Z,996.92
2019-01-14T04:26:33.250Z,996.92
2019-01-14T04:27:39.770Z,996.97
2019-01-14T04:28:44.290Z,996.98
2019-01-14T04:29:49.776Z,996.95
2019-01-14T04:30:55.286Z,996.99
2019-01-14T04:32:00.791Z,996.92
2019-01-14T04:33:06.303Z,996.93
2019-01-14T04:34:12.816Z,996.96
2019-01-14T04:35:17.316Z,997.02
2019-01-14T04:36:22.825Z,997.09
2019-01-14T04:37:28.331Z,997.09
2019-01-14T04:38:33.842Z,997.09
2019-01-14T04:39:39.342Z,997.09
2019-01-14T04:40:45.865Z,997.11
2019-01-14T04:41:50.362Z,997.09
2019-01-14T04:42:55.872Z,997.04
2019-01-14T04:44:01.377Z,997.10
2019-01-14T04:45:06.884Z,997.06
2019-01-14T04:46:12.391Z,997.10
2019-01-14T04:47:18.912Z,997.11
2019-01-14T04:48:23.407Z,997.18
2019-01-14T04:49:28.920Z,997.20
2019-01-14T04:50:34.432Z,997.21
2019-01-14T04:51:39.936Z,997.23
2019-01-14T04:52:45.437Z,997.17
2019-01-14T04:53:51.958Z,997.17
2019-01-14T04:54:56.457Z,997.15
2019-01-14T04:56:01.970Z,997.17
2019-01-14T04:57:07.473Z,997.15
2019-01-14T04:58:12.981Z,997.18
2019-01-14T04:59:18.492Z,997.18
2019-01-14T05:00:25.027Z,997.20
2019-01-14T05:01:29.505Z,997.24
2019-01-14T05:02:35.011Z,997.27
2019-01-14T05:03:40.515Z,997.27
2019-01-14T05:04:46.026Z,997.28
2019-01-14T05:05:51.534Z,997.28
2019-01-14T05:06:58.050Z,997.33
2019-01-14T05:08:02.551Z,997.32
2019-01-14T05:09:08.057Z,997.40
2019-01-14T05:10:13.565Z,997.43
2019-01-14T05:11:19.069Z,997.47
2019-01-14T05:12:24.578Z,997.43
2019-01-14T05:13:31.098Z,997.43
2019-01-14T05:14:35.602Z,997.45
2019-01-14T05:15:41.103Z,997.47
2019-01-14T05:16:46.609Z,997.47
2019-01-14T05:17:52.121Z,997.42
2019-01-14T05:18:57.636Z,997.43
2019-01-14T05:20:04.151Z,997.41
2019-01-14T05:21:08.648Z,997.37
2019-01-14T05:22:14.157Z,997.40
2019-01-14T05:23:19.660Z,997.42
2019-01-14T05:24:25.263Z,997.37
2019-01-14T05:25:30.678Z,997.45
2019-01-14T05:26:37.200Z,997.48
2019-01-14T05:27:41.695Z,997.54
2019-01-14T05:28:47.205Z,997.51
2019-01-14T05:29:52.732Z,997.49
2019-01-14T05:30:58.217Z,997.52
2019-01-14T05:32:03.728Z,997.53
2019-01-14T05:33:10.252Z,997.55
2019-01-14T05:34:14.748Z,997.63
2019-01-14T05:35:20.253Z,997.66
2019-01-14T05:36:25.759Z,997.68
2019-01-14T05:37:37.370Z,997.73
2019-01-14T05:38:36.811Z,997.74
2019-01-14T05:39:43.306Z,997.70
2019-01-14T05:40:47.794Z,997.72
2019-01-14T05:41:53.301Z,997.77
2019-01-14T05:42:58.814Z,997.76
2019-01-14T05:44:04.319Z,997.76
2019-01-14T05:45:09.829Z,997.75
2019-01-14T05:46:16.342Z,997.74
2019-01-14T05:47:20.842Z,997.72
2019-01-14T05:48:26.352Z,997.76
2019-01-14T05:49:31.863Z,997.80
2019-01-14T05:50:37.368Z,997.79
2019-01-14T05:51:42.889Z,997.87
2019-01-14T05:52:49.397Z,997.89
2019-01-14T05:53:53.892Z,997.89
2019-01-14T05:54:59.401Z,997.89
2019-01-14T05:56:04.908Z,997.84
2019-01-14T05:57:10.420Z,997.88
2019-01-14T05:58:15.928Z,997.90
2019-01-14T05:59:22.441Z,997.97
2019-01-14T06:00:26.938Z,997.98
2019-01-14T06:01:32.455Z,998.02
2019-01-14T06:02:37.958Z,998.01
2019-01-14T06:03:43.464Z,998.05
2019-01-14T06:04:48.983Z,998.08
2019-01-14T06:05:55.487Z,998.11
2019-01-14T06:06:59.991Z,998.14
2019-01-14T06:08:05.494Z,998.14
2019-01-14T06:09:11.012Z,998.13
2019-01-14T06:10:16.515Z,998.13
2019-01-14T06:11:22.021Z,998.13
2019-01-14T06:12:28.540Z,998.19
2019-01-14T06:13:33.036Z,998.25
2019-01-14T06:14:38.545Z,998.27
2019-01-14T06:15:44.063Z,998.30
2019-01-14T06:16:49.562Z,998.32
2019-01-14T06:17:55.066Z,998.33
2019-01-14T06:19:01.587Z,998.29
2019-01-14T06:20:06.094Z,998.35
2019-01-14T06:21:11.594Z,998.32
2019-01-14T06:22:17.108Z,998.31
2019-01-14T06:23:22.615Z,998.31
2019-01-14T06:24:28.120Z,998.26
2019-01-14T06:25:34.635Z,998.33
2019-01-14T06:26:39.133Z,998.32
2019-01-14T06:27:44.637Z,998.34
2019-01-14T06:28:50.162Z,998.34
2019-01-14T06:29:55.653Z,998.30
2019-01-14T06:31:01.169Z,998.33
2019-01-14T06:32:07.683Z,998.34
2019-01-14T06:33:12.181Z,998.34
2019-01-14T06:34:17.686Z,998.35
2019-01-14T06:35:23.196Z,998.41
2019-01-14T06:36:28.709Z,998.43
2019-01-14T06:37:34.210Z,998.43
2019-01-14T06:38:40.784Z,998.46
2019-01-14T06:39:45.231Z,998.49
2019-01-14T06:40:50.736Z,998.50
2019-01-14T06:41:56.243Z,998.56
2019-01-14T06:43:01.749Z,998.57
2019-01-14T06:44:07.260Z,998.61
2019-01-14T06:45:13.776Z,998.66
2019-01-14T06:46:18.276Z,998.65
2019-01-14T06:47:23.782Z,998.66
2019-01-14T06:48:31.024Z,998.71
2019-01-14T06:49:34.798Z,998.74
2019-01-14T06:50:40.305Z,998.78
2019-01-14T06:51:46.826Z,998.79
2019-01-14T06:52:51.325Z,998.82
2019-01-14T06:53:56.830Z,998.78
2019-01-14T06:55:02.336Z,998.77
2019-01-14T06:56:07.856Z,998.80
2019-01-14T06:57:13.353Z,998.80
2019-01-14T06:58:19.877Z,998.82
2019-01-14T06:59:24.368Z,998.79
2019-01-14T07:00:29.877Z,998.87
2019-01-14T07:01:35.382Z,998.89
2019-01-14T07:02:40.894Z,998.90
2019-01-14T07:03:46.402Z,998.96
2019-01-14T07:04:52.921Z,998.96
2019-01-14T07:05:57.415Z,998.98
2019-01-14T07:07:02.927Z,999.01
2019-01-14T07:08:08.435Z,999.03
2019-01-14T07:09:13.936Z,999.05
2019-01-14T07:10:19.445Z,999.08
2019-01-14T07:11:25.964Z,999.17
2019-01-14T07:12:30.465Z,999.17
2019-01-14T07:13:35.970Z,999.19
2019-01-14T07:14:41.474Z,999.20
2019-01-14T07:15:46.986Z,999.17
2019-01-14T07:16:52.497Z,999.24
2019-01-14T07:17:59.009Z,999.29
2019-01-14T07:19:03.512Z,999.29
2019-01-14T07:20:09.015Z,999.32
2019-01-14T07:21:14.521Z,999.36
2019-01-14T07:22:20.030Z,999.43
2019-01-14T07:23:25.538Z,999.47
2019-01-14T07:24:32.058Z,999.52
2019-01-14T07:25:36.553Z,999.57
2019-01-14T07:26:42.063Z,999.58
2019-01-14T07:27:47.566Z,999.64
2019-01-14T07:28:53.075Z,999.65
2019-01-14T07:29:58.619Z,999.71
2019-01-14T07:31:05.107Z,999.77
2019-01-14T07:32:09.598Z,999.70
2019-01-14T07:33:15.103Z,999.67
2019-01-14T07:34:20.610Z,999.66
2019-01-14T07:35:26.119Z,999.59
2019-01-14T07:36:31.633Z,999.70
2019-01-14T07:37:38.144Z,999.75
2019-01-14T07:38:42.648Z,999.88
2019-01-14T07:39:48.149Z,999.82
2019-01-14T07:40:53.668Z,999.81
2019-01-14T07:41:59.162Z,999.82
2019-01-14T07:43:04.671Z,999.81
2019-01-14T07:44:11.185Z,999.87
2019-01-14T07:45:15.683Z,999.84
2019-01-14T07:46:21.206Z,999.84
2019-01-14T07:47:26.706Z,999.87
2019-01-14T07:48:32.205Z,999.88
2019-01-14T07:49:37.715Z,999.87
2019-01-14T07:50:44.227Z,999.83
2019-01-14T07:51:48.785Z,999.85
2019-01-14T07:52:54.236Z,999.88
2019-01-14T07:53:59.741Z,999.94
2019-01-14T07:55:05.255Z,999.94
2019-01-14T07:56:10.754Z,999.95
2019-01-14T07:57:17.540Z,1000.01
2019-01-14T07:58:21.769Z,1000.01
2019-01-14T07:59:27.276Z,1000.05
2019-01-14T08:00:32.781Z,1000.17
2019-01-14T08:01:38.295Z,1000.19
2019-01-14T08:02:43.797Z,1000.25
2019-01-14T08:03:50.318Z,1000.25
2019-01-14T08:04:54.811Z,1000.27
2019-01-14T08:06:00.313Z,1000.34
2019-01-14T08:07:05.824Z,1000.32
2019-01-14T08:08:14.167Z,1000.39
2019-01-14T08:09:16.846Z,1000.39
2019-01-14T08:10:23.360Z,1000.39
2019-01-14T08:11:27.850Z,1000.40
2019-01-14T08:12:33.365Z,1000.39
2019-01-14T08:13:38.861Z,1000.42
2019-01-14T08:14:44.373Z,1000.41
2019-01-14T08:15:49.885Z,1000.45
2019-01-14T08:16:56.407Z,1000.43
2019-01-14T08:18:00.890Z,1000.42
2019-01-14T08:19:06.398Z,1000.49
2019-01-14T08:20:11.908Z,1000.45
2019-01-14T08:21:17.413Z,1000.50
2019-01-14T08:22:22.925Z,1000.46
2019-01-14T08:23:29.441Z,1000.50
2019-01-14T08:24:33.936Z,1000.49
2019-01-14T08:25:39.443Z,1000.47
2019-01-14T08:26:44.950Z,1000.45
2019-01-14T08:27:50.456Z,1000.53
2019-01-14T08:28:55.966Z,1000.51
2019-01-14T08:30:02.483Z,1000.52
2019-01-14T08:31:06.984Z,1000.56
2019-01-14T08:32:12.489Z,1000.54
2019-01-14T08:33:17.991Z,1000.53
2019-01-14T08:34:23.496Z,1000.58
2019-01-14T08:35:29.004Z,1000.60
2019-01-14T08:36:35.519Z,1000.59
2019-01-14T08:37:40.020Z,1000.69
2019-01-14T08:38:45.530Z,1000.66
2019-01-14T08:39:51.032Z,1000.70
2019-01-14T08:40:56.539Z,1000.70
2019-01-14T08:42:02.045Z,1000.75
2019-01-14T08:43:08.582Z,1000.76
2019-01-14T08:44:13.059Z,1000.75
2019-01-14T08:45:18.574Z,1000.73
2019-01-14T08:46:24.080Z,1000.80
2019-01-14T08:47:29.591Z,1000.83
2019-01-14T08:48:35.092Z,1000.85
2019-01-14T08:49:41.607Z,1000.86
2019-01-14T08:50:46.104Z,1000.87
2019-01-14T08:51:51.611Z,1000.90
2019-01-14T08:52:57.118Z,1000.98
2019-01-14T08:54:02.632Z,1000.97
2019-01-14T08:55:08.132Z,1001.04
2019-01-14T08:56:14.654Z,1001.01
2019-01-14T08:57:19.149Z,1001.10
2019-01-14T08:58:24.656Z,1001.12
2019-01-14T08:59:30.155Z,1001.12
2019-01-14T09:00:35.665Z,1001.18
2019-01-14T09:01:41.170Z,1001.15
2019-01-14T09:02:47.703Z,1001.18
2019-01-14T09:03:52.191Z,1001.20
2019-01-14T09:04:57.697Z,1001.19
2019-01-14T09:06:03.203Z,1001.23
2019-01-14T09:07:08.708Z,1001.26
2019-01-14T09:08:14.225Z,1001.31
2019-01-14T09:09:20.732Z,1001.33
2019-01-14T09:10:25.237Z,1001.34
2019-01-14T09:11:30.732Z,1001.36
2019-01-14T09:12:36.239Z,1001.33
2019-01-14T09:13:41.748Z,1001.37
2019-01-14T09:14:47.250Z,1001.38
2019-01-14T09:15:53.769Z,1001.34
2019-01-14T09:16:58.270Z,1001.39
2019-01-14T09:18:03.777Z,1001.40
2019-01-14T09:19:09.282Z,1001.40
2019-01-14T09:20:14.789Z,1001.42
2019-01-14T09:21:20.295Z,1001.46
2019-01-14T09:22:26.824Z,1001.50
2019-01-14T09:23:31.311Z,1001.48
2019-01-14T09:24:36.823Z,1001.46
2019-01-14T09:25:42.323Z,1001.48
2019-01-14T09:26:47.833Z,1001.49
2019-01-14T09:27:53.336Z,1001.49
2019-01-14T09:28:59.852Z,1001.45
2019-01-14T09:30:04.348Z,1001.41
2019-01-14T09:31:09.858Z,1001.45
2019-01-14T09:32:15.361Z,1001.57
2019-01-14T09:33:20.870Z,1001.58
2019-01-14T09:34:26.379Z,1001.54
2019-01-14T09:35:32.895Z,1001.55
2019-01-14T09:36:37.391Z,1001.57
2019-01-14T09:37:42.900Z,1001.56
2019-01-14T09:38:48.408Z,1001.60
2019-01-14T09:39:53.913Z,1001.57
2019-01-14T09:40:59.422Z,1001.62
2019-01-14T09:42:05.937Z,1001.64
2019-01-14T09:43:10.431Z,1001.63
2019-01-14T09:44:15.939Z,1001.68
2019-01-14T09:45:21.453Z,1001.71
2019-01-14T09:46:26.953Z,1001.74
2019-01-14T09:47:32.464Z,1001.76
2019-01-14T09:48:38.984Z,1001.73
2019-01-14T09:49:45.603Z,1001.78
2019-01-14T09:50:48.983Z,1001.81
2019-01-14T09:51:54.486Z,1001.81
2019-01-14T09:52:59.997Z,1001.77
2019-01-14T09:54:05.500Z,1001.84
2019-01-14T09:55:12.027Z,1001.85
2019-01-14T09:56:16.514Z,1001.81
2019-01-14T09:57:22.020Z,1001.86
2019-01-14T09:58:27.537Z,1001.88
2019-01-14T09:59:33.036Z,1001.90
2019-01-14T10:00:38.537Z,1001.88
2019-01-14T10:01:45.059Z,1001.94
2019-01-14T10:02:49.551Z,1001.96
2019-01-14T10:03:55.057Z,1001.99
2019-01-14T10:05:00.569Z,1002.05
2019-01-14T10:06:06.084Z,1002.05
2019-01-14T10:07:11.581Z,1002.06
2019-01-14T10:08:18.101Z,1002.08
2019-01-14T10:09:22.598Z,1002.05
2019-01-14T10:10:28.103Z,1002.09
2019-01-14T10:11:33.608Z,1002.05
2019-01-14T10:12:39.115Z,1002.08
2019-01-14T10:13:44.661Z,1002.02
2019-01-14T10:14:51.141Z,1002.04
2019-01-14T10:15:55.639Z,1002.11
2019-01-14T10:17:01.152Z,1002.08
2019-01-14T10:18:06.657Z,1002.09
2019-01-14T10:19:12.161Z,1002.05
2019-01-14T10:20:17.667Z,1002.10
2019-01-14T10:21:24.186Z,1002.10
2019-01-14T10:22:28.676Z,1002.19
2019-01-14T10:23:34.201Z,1002.17
2019-01-14T10:24:39.701Z,1002.23
2019-01-14T10:25:45.198Z,1002.18
2019-01-14T10:26:50.706Z,1002.22
2019-01-14T10:27:57.224Z,1002.19
2019-01-14T10:29:01.718Z,1002.18
2019-01-14T10:30:07.228Z,1002.28
2019-01-14T10:31:12.736Z,1002.25
2019-01-14T10:32:18.239Z,1002.21
2019-01-14T10:33:23.746Z,1002.20
2019-01-14T10:34:30.264Z,1002.18
2019-01-14T10:35:34.767Z,1002.14
2019-01-14T10:36:40.269Z,1002.11
2019-01-14T10:37:45.773Z,1002.17
2019-01-14T10:38:51.287Z,1002.17
2019-01-14T10:39:56.791Z,1002.17
2019-01-14T10:41:03.304Z,1002.16
2019-01-14T10:42:07.802Z,1002.14
2019-01-14T10:43:13.311Z,1002.16
2019-01-14T10:44:18.830Z,1002.16
2019-01-14T10:45:24.345Z,1002.20
2019-01-14T10:46:29.842Z,1002.21
2019-01-14T10:47:36.345Z,1002.24
2019-01-14T10:48:40.851Z,1002.24
2019-01-14T10:49:46.353Z,1002.23
2019-01-14T10:50:51.878Z,1002.33
2019-01-14T10:51:57.659Z,1002.34
2019-01-14T10:53:02.877Z,1002.26
2019-01-14T10:54:09.388Z,1002.31
2019-01-14T10:55:13.881Z,1002.28
2019-01-14T10:56:19.390Z,1002.34
2019-01-14T10:57:24.905Z,1002.32
2019-01-14T10:58:30.407Z,1002.34
2019-01-14T10:59:35.916Z,1002.34
2019-01-14T11:00:42.438Z,1002.35
2019-01-14T11:01:46.933Z,1002.46
2019-01-14T11:02:52.439Z,1002.36
2019-01-14T11:03:57.945Z,1002.41
2019-01-14T11:05:03.448Z,1002.45
2019-01-14T11:06:08.955Z,1002.54
2019-01-14T11:07:15.469Z,1002.51
2019-01-14T11:08:19.970Z,1002.45
2019-01-14T11:09:25.476Z,1002.42
2019-01-14T11:10:30.987Z,1002.43
2019-01-14T11:11:36.500Z,1002.47
2019-01-14T11:12:42.037Z,1002.49
2019-01-14T11:13:48.514Z,1002.53
2019-01-14T11:14:53.009Z,1002.52
2019-01-14T11:15:58.521Z,1002.45
2019-01-14T11:17:04.033Z,1002.46
2019-01-14T11:18:09.540Z,1002.44
2019-01-14T11:19:15.038Z,1002.55
2019-01-14T11:20:21.555Z,1002.55
2019-01-14T11:21:26.055Z,1002.53
2019-01-14T11:22:31.570Z,1002.63
2019-01-14T11:23:37.127Z,1002.58
2019-01-14T11:24:42.575Z,1002.65
2019-01-14T11:25:48.091Z,1002.61
2019-01-14T11:26:54.601Z,1002.59
2019-01-14T11:27:59.102Z,1002.59
2019-01-14T11:29:04.606Z,1002.56
2019-01-14T11:30:10.107Z,1002.58
2019-01-14T11:31:15.613Z,1002.60
2019-01-14T11:32:21.125Z,1002.56
2019-01-14T11:33:27.639Z,1002.64
2019-01-14T11:34:32.138Z,1002.69
2019-01-14T11:35:37.646Z,1002.66
2019-01-14T11:36:43.162Z,1002.78
2019-01-14T11:37:48.662Z,1002.73
2019-01-14T11:38:54.163Z,1002.78
2019-01-14T11:40:00.679Z,1002.62
2019-01-14T11:41:05.181Z,1002.71
2019-01-14T11:42:10.679Z,1002.71
2019-01-14T11:43:16.205Z,1002.72
2019-01-14T11:44:21.710Z,1002.77
2019-01-14T11:45:27.211Z,1002.75
2019-01-14T11:46:33.728Z,1002.89
2019-01-14T11:47:38.224Z,1002.79
2019-01-14T11:48:43.730Z,1002.73
2019-01-14T11:49:49.235Z,1002.84
2019-01-14T11:50:54.747Z,1002.87
2019-01-14T11:52:00.251Z,1002.84
2019-01-14T11:53:06.770Z,1002.89
2019-01-14T11:54:11.265Z,1002.84
2019-01-14T11:55:16.792Z,1002.89
2019-01-14T11:56:22.286Z,1002.88
2019-01-14T11:57:27.783Z,1002.88
2019-01-14T11:58:33.300Z,1002.82
2019-01-14T11:59:39.807Z,1002.81
2019-01-14T12:00:44.304Z,1002.88
2019-01-14T12:01:49.811Z,1002.87
2019-01-14T12:02:55.326Z,1002.90
2019-01-14T12:04:00.823Z,1002.92
2019-01-14T12:05:06.333Z,1002.88
2019-01-14T12:06:12.849Z,1002.89
2019-01-14T12:07:17.351Z,1002.93
2019-01-14T12:08:22.858Z,1002.90
2019-01-14T12:09:28.355Z,1002.94
2019-01-14T12:10:33.866Z,1002.94
2019-01-14T12:11:39.374Z,1002.90
2019-01-14T12:12:45.888Z,1002.93
2019-01-14T12:13:50.383Z,1002.93
2019-01-14T12:14:55.901Z,1002.90
2019-01-14T12:16:01.398Z,1002.95
2019-01-14T12:17:06.949Z,1002.96
2019-01-14T12:18:12.412Z,1002.97
2019-01-14T12:19:18.930Z,1003.01
2019-01-14T12:20:23.436Z,1003.04
2019-01-14T12:21:28.942Z,1003.08
2019-01-14T12:22:34.442Z,1003.07
2019-01-14T12:23:39.954Z,1003.10
2019-01-14T12:24:45.457Z,1003.11
2019-01-14T12:25:51.972Z,1003.21
2019-01-14T12:26:56.474Z,1003.13
2019-01-14T12:28:01.975Z,1003.17
2019-01-14T12:29:07.485Z,1003.22
2019-01-14T12:30:12.989Z,1003.18
2019-01-14T12:31:18.497Z,1003.19
2019-01-14T12:32:25.022Z,1003.16
2019-01-14T12:33:29.512Z,1003.10
2019-01-14T12:34:35.029Z,1003.16
2019-01-14T12:35:40.526Z,1003.11
2019-01-14T12:36:46.030Z,1003.10
2019-01-14T12:37:51.537Z,1003.10
2019-01-14T12:38:58.057Z,1003.15
2019-01-14T12:40:02.555Z,1003.22
2019-01-14T12:41:08.061Z,1003.23
2019-01-14T12:42:13.565Z,1003.27
2019-01-14T12:43:20.201Z,1003.26
2019-01-14T12:44:24.585Z,1003.17
2019-01-14T12:45:31.101Z,1003.19
2019-01-14T12:46:35.597Z,1003.19
2019-01-14T12:47:41.104Z,1003.19
2019-01-14T12:48:46.607Z,1003.19
2019-01-14T12:49:52.115Z,1003.17
2019-01-14T12:50:57.624Z,1003.21
2019-01-14T12:52:04.141Z,1003.19
2019-01-14T12:53:08.642Z,1003.29
2019-01-14T12:54:14.144Z,1003.26
2019-01-14T12:55:19.648Z,1003.20
2019-01-14T12:56:25.163Z,1003.31
2019-01-14T12:57:30.669Z,1003.30
2019-01-14T12:58:37.188Z,1003.23
2019-01-14T12:59:41.682Z,1003.24
2019-01-14T13:00:47.197Z,1003.29
2019-01-14T13:01:52.700Z,1003.28
2019-01-14T13:02:58.839Z,1003.29
2019-01-14T13:04:03.707Z,1003.23
2019-01-14T13:05:10.224Z,1003.31
2019-01-14T13:06:14.730Z,1003.28
2019-01-14T13:07:20.233Z,1003.34
2019-01-14T13:08:25.741Z,1003.34
2019-01-14T13:09:31.244Z,1003.36
2019-01-14T13:10:36.754Z,1003.36
2019-01-14T13:11:43.269Z,1003.39
2019-01-14T13:12:47.764Z,1003.40
2019-01-14T13:13:53.276Z,1003.40
2019-01-14T13:14:58.783Z,1003.38
2019-01-14T13:16:04.287Z,1003.35
2019-01-14T13:17:09.804Z,1003.35
2019-01-14T13:18:16.322Z,1003.36
2019-01-14T13:19:20.817Z,1003.34
2019-01-14T13:20:26.317Z,1003.27
2019-01-14T13:21:31.836Z,1003.29
2019-01-14T13:22:37.331Z,1003.28
2019-01-14T13:23:42.836Z,1003.27
2019-01-14T13:24:49.354Z,1003.23
2019-01-14T13:25:53.853Z,1003.36
2019-01-14T13:26:59.364Z,1003.33